sensor_id;sensor_type;location;lat;lon;timestamp;temperature;humidity
51988;DHT22;38003;52.012;4.346;2022-08-19T00:01:44;23.20;60.20
51988;DHT22;38003;52.012;4.346;2022-08-19T00:04:21;23.30;60.20
51988;DHT22;38003;52.012;4.346;2022-08-19T00:06:52;23.30;60.30
51988;DHT22;38003;52.012;4.346;2022-08-19T00:09:21;23.20;60.30
51988;DHT22;38003;52.012;4.346;2022-08-19T00:11:50;23.30;60.50
51988;DHT22;38003;52.012;4.346;2022-08-19T00:14:19;23.20;60.50
51988;DHT22;38003;52.012;4.346;2022-08-19T00:16:48;23.20;60.40
51988;DHT22;38003;52.012;4.346;2022-08-19T00:19:17;23.10;60.50
51988;DHT22;38003;52.012;4.346;2022-08-19T00:21:46;23.10;60.60
51988;DHT22;38003;52.012;4.346;2022-08-19T00:24:15;23.10;60.50
51988;DHT22;38003;52.012;4.346;2022-08-19T00:26:44;23.10;60.60
51988;DHT22;38003;52.012;4.346;2022-08-19T00:29:14;23.10;60.60
51988;DHT22;38003;52.012;4.346;2022-08-19T00:31:43;23.20;60.70
51988;DHT22;38003;52.012;4.346;2022-08-19T00:34:12;23.10;60.60
51988;DHT22;38003;52.012;4.346;2022-08-19T00:36:41;23.10;60.60
51988;DHT22;38003;52.012;4.346;2022-08-19T00:39:09;23.10;60.60
51988;DHT22;38003;52.012;4.346;2022-08-19T00:41:39;23.20;60.60
51988;DHT22;38003;52.012;4.346;2022-08-19T00:44:11;23.20;60.70
51988;DHT22;38003;52.012;4.346;2022-08-19T00:46:42;23.20;60.60
51988;DHT22;38003;52.012;4.346;2022-08-19T00:49:25;23.30;60.90
51988;DHT22;38003;52.012;4.346;2022-08-19T00:51:59;23.20;60.70
51988;DHT22;38003;52.012;4.346;2022-08-19T00:54:29;23.20;60.90
51988;DHT22;38003;52.012;4.346;2022-08-19T00:56:59;23.30;60.70
51988;DHT22;38003;52.012;4.346;2022-08-19T00:59:29;23.20;60.80
51988;DHT22;38003;52.012;4.346;2022-08-19T01:02:17;23.20;60.80
51988;DHT22;38003;52.012;4.346;2022-08-19T01:04:46;23.20;60.80
51988;DHT22;38003;52.012;4.346;2022-08-19T01:07:14;23.30;61.00
51988;DHT22;38003;52.012;4.346;2022-08-19T01:09:45;23.20;61.00
51988;DHT22;38003;52.012;4.346;2022-08-19T01:12:15;23.40;61.10
51988;DHT22;38003;52.012;4.346;2022-08-19T01:14:46;23.40;61.00
51988;DHT22;38003;52.012;4.346;2022-08-19T01:17:16;23.20;61.00
51988;DHT22;38003;52.012;4.346;2022-08-19T01:19:45;23.20;61.20
51988;DHT22;38003;52.012;4.346;2022-08-19T01:22:25;23.20;61.20
51988;DHT22;38003;52.012;4.346;2022-08-19T01:24:59;23.20;61.10
51988;DHT22;38003;52.012;4.346;2022-08-19T01:27:37;23.20;61.10
51988;DHT22;38003;52.012;4.346;2022-08-19T01:30:12;23.20;61.20
51988;DHT22;38003;52.012;4.346;2022-08-19T01:32:40;23.20;62.00
51988;DHT22;38003;52.012;4.346;2022-08-19T01:35:10;23.20;61.30
51988;DHT22;38003;52.012;4.346;2022-08-19T01:37:44;23.20;61.30
51988;DHT22;38003;52.012;4.346;2022-08-19T01:40:12;23.20;61.30
51988;DHT22;38003;52.012;4.346;2022-08-19T01:42:40;23.20;61.50
51988;DHT22;38003;52.012;4.346;2022-08-19T01:45:09;23.20;61.60
51988;DHT22;38003;52.012;4.346;2022-08-19T01:47:37;23.20;61.40
51988;DHT22;38003;52.012;4.346;2022-08-19T01:50:08;23.30;61.50
51988;DHT22;38003;52.012;4.346;2022-08-19T01:52:36;23.20;61.40
51988;DHT22;38003;52.012;4.346;2022-08-19T01:55:09;23.40;61.50
51988;DHT22;38003;52.012;4.346;2022-08-19T01:57:39;23.20;61.60
51988;DHT22;38003;52.012;4.346;2022-08-19T02:00:12;23.20;61.50
51988;DHT22;38003;52.012;4.346;2022-08-19T02:02:41;23.20;61.60
51988;DHT22;38003;52.012;4.346;2022-08-19T02:05:10;23.20;61.60
51988;DHT22;38003;52.012;4.346;2022-08-19T02:07:40;23.20;61.70
51988;DHT22;38003;52.012;4.346;2022-08-19T02:10:12;23.20;61.60
51988;DHT22;38003;52.012;4.346;2022-08-19T02:12:42;23.30;61.80
51988;DHT22;38003;52.012;4.346;2022-08-19T02:15:11;23.60;61.80
51988;DHT22;38003;52.012;4.346;2022-08-19T02:17:39;23.20;61.70
51988;DHT22;38003;52.012;4.346;2022-08-19T02:20:09;23.50;62.00
51988;DHT22;38003;52.012;4.346;2022-08-19T02:22:37;23.20;61.80
51988;DHT22;38003;52.012;4.346;2022-08-19T02:25:11;23.30;61.80
51988;DHT22;38003;52.012;4.346;2022-08-19T02:27:39;23.30;61.80
51988;DHT22;38003;52.012;4.346;2022-08-19T02:30:15;23.30;61.90
51988;DHT22;38003;52.012;4.346;2022-08-19T02:32:44;23.30;61.70
51988;DHT22;38003;52.012;4.346;2022-08-19T02:35:14;23.30;61.90
51988;DHT22;38003;52.012;4.346;2022-08-19T02:37:43;23.30;61.80
51988;DHT22;38003;52.012;4.346;2022-08-19T02:40:31;23.30;61.70
51988;DHT22;38003;52.012;4.346;2022-08-19T02:43:01;23.10;61.60
51988;DHT22;38003;52.012;4.346;2022-08-19T02:45:32;23.20;61.80
51988;DHT22;38003;52.012;4.346;2022-08-19T02:48:00;23.30;61.80
51988;DHT22;38003;52.012;4.346;2022-08-19T02:50:38;23.20;61.70
51988;DHT22;38003;52.012;4.346;2022-08-19T02:53:18;23.20;61.60
51988;DHT22;38003;52.012;4.346;2022-08-19T02:55:50;23.30;61.70
51988;DHT22;38003;52.012;4.346;2022-08-19T02:58:20;23.30;61.80
51988;DHT22;38003;52.012;4.346;2022-08-19T03:00:53;23.30;62.10
51988;DHT22;38003;52.012;4.346;2022-08-19T03:03:21;23.20;61.70
51988;DHT22;38003;52.012;4.346;2022-08-19T03:05:50;23.30;61.70
51988;DHT22;38003;52.012;4.346;2022-08-19T03:08:22;23.20;61.60
51988;DHT22;38003;52.012;4.346;2022-08-19T03:10:52;23.20;61.60
51988;DHT22;38003;52.012;4.346;2022-08-19T03:13:20;23.20;61.70
51988;DHT22;38003;52.012;4.346;2022-08-19T03:15:50;23.20;61.80
51988;DHT22;38003;52.012;4.346;2022-08-19T03:18:18;23.20;61.80
51988;DHT22;38003;52.012;4.346;2022-08-19T03:20:50;23.20;61.80
51988;DHT22;38003;52.012;4.346;2022-08-19T03:23:19;23.20;61.80
51988;DHT22;38003;52.012;4.346;2022-08-19T03:25:48;23.10;61.80
51988;DHT22;38003;52.012;4.346;2022-08-19T03:28:38;23.10;62.00
51988;DHT22;38003;52.012;4.346;2022-08-19T03:31:10;23.10;61.90
51988;DHT22;38003;52.012;4.346;2022-08-19T03:33:58;23.10;62.00
51988;DHT22;38003;52.012;4.346;2022-08-19T03:36:27;23.10;61.90
51988;DHT22;38003;52.012;4.346;2022-08-19T03:38:57;23.10;61.90
51988;DHT22;38003;52.012;4.346;2022-08-19T03:41:27;23.10;62.00
51988;DHT22;38003;52.012;4.346;2022-08-19T03:44:12;23.10;62.10
51988;DHT22;38003;52.012;4.346;2022-08-19T03:46:44;23.10;62.20
51988;DHT22;38003;52.012;4.346;2022-08-19T03:49:13;23.10;62.20
51988;DHT22;38003;52.012;4.346;2022-08-19T03:51:44;23.00;62.10
51988;DHT22;38003;52.012;4.346;2022-08-19T03:54:14;23.00;62.00
51988;DHT22;38003;52.012;4.346;2022-08-19T03:56:43;23.10;62.30
51988;DHT22;38003;52.012;4.346;2022-08-19T03:59:15;23.00;62.20
51988;DHT22;38003;52.012;4.346;2022-08-19T04:01:43;23.00;62.10
51988;DHT22;38003;52.012;4.346;2022-08-19T04:04:12;23.00;62.00
51988;DHT22;38003;52.012;4.346;2022-08-19T04:06:40;23.00;62.10
51988;DHT22;38003;52.012;4.346;2022-08-19T04:09:10;23.00;62.20
51988;DHT22;38003;52.012;4.346;2022-08-19T04:11:40;22.90;62.20
51988;DHT22;38003;52.012;4.346;2022-08-19T04:14:13;22.90;62.10
51988;DHT22;38003;52.012;4.346;2022-08-19T04:16:42;22.90;62.30
51988;DHT22;38003;52.012;4.346;2022-08-19T04:19:12;22.90;62.40
51988;DHT22;38003;52.012;4.346;2022-08-19T04:21:40;22.90;62.50
51988;DHT22;38003;52.012;4.346;2022-08-19T04:24:11;22.90;62.40
51988;DHT22;38003;52.012;4.346;2022-08-19T04:26:39;22.90;62.40
51988;DHT22;38003;52.012;4.346;2022-08-19T04:29:10;22.90;62.50
51988;DHT22;38003;52.012;4.346;2022-08-19T04:31:41;22.90;62.40
51988;DHT22;38003;52.012;4.346;2022-08-19T04:34:11;23.00;62.50
51988;DHT22;38003;52.012;4.346;2022-08-19T04:36:41;23.10;62.60
51988;DHT22;38003;52.012;4.346;2022-08-19T04:39:13;23.00;62.50
51988;DHT22;38003;52.012;4.346;2022-08-19T04:41:41;23.00;62.60
51988;DHT22;38003;52.012;4.346;2022-08-19T04:44:27;23.00;62.50
51988;DHT22;38003;52.012;4.346;2022-08-19T04:47:00;22.90;62.70
51988;DHT22;38003;52.012;4.346;2022-08-19T04:49:37;23.10;62.60
51988;DHT22;38003;52.012;4.346;2022-08-19T04:52:05;23.00;62.70
51988;DHT22;38003;52.012;4.346;2022-08-19T04:54:34;22.90;62.70
51988;DHT22;38003;52.012;4.346;2022-08-19T04:57:06;23.00;62.70
51988;DHT22;38003;52.012;4.346;2022-08-19T04:59:35;23.00;63.00
51988;DHT22;38003;52.012;4.346;2022-08-19T05:02:06;23.00;62.90
51988;DHT22;38003;52.012;4.346;2022-08-19T05:04:35;23.10;62.90
51988;DHT22;38003;52.012;4.346;2022-08-19T05:07:06;23.00;62.80
51988;DHT22;38003;52.012;4.346;2022-08-19T05:09:34;23.10;62.90
51988;DHT22;38003;52.012;4.346;2022-08-19T05:12:23;23.10;62.80
51988;DHT22;38003;52.012;4.346;2022-08-19T05:14:55;23.30;63.00
51988;DHT22;38003;52.012;4.346;2022-08-19T05:17:25;23.40;62.80
51988;DHT22;38003;52.012;4.346;2022-08-19T05:19:59;23.10;62.80
51988;DHT22;38003;52.012;4.346;2022-08-19T05:22:46;23.10;63.30
51988;DHT22;38003;52.012;4.346;2022-08-19T05:25:17;23.30;63.00
51988;DHT22;38003;52.012;4.346;2022-08-19T05:27:47;23.10;63.10
51988;DHT22;38003;52.012;4.346;2022-08-19T05:30:15;23.10;63.00
51988;DHT22;38003;52.012;4.346;2022-08-19T05:32:45;23.10;63.10
51988;DHT22;38003;52.012;4.346;2022-08-19T05:35:13;23.10;62.90
51988;DHT22;38003;52.012;4.346;2022-08-19T05:37:41;23.10;63.00
51988;DHT22;38003;52.012;4.346;2022-08-19T05:40:10;23.20;63.00
51988;DHT22;38003;52.012;4.346;2022-08-19T05:42:38;23.20;63.00
51988;DHT22;38003;52.012;4.346;2022-08-19T05:45:07;23.20;63.00
51988;DHT22;38003;52.012;4.346;2022-08-19T05:47:35;23.20;63.10
51988;DHT22;38003;52.012;4.346;2022-08-19T05:50:09;23.20;63.20
51988;DHT22;38003;52.012;4.346;2022-08-19T05:52:37;23.20;63.20
51988;DHT22;38003;52.012;4.346;2022-08-19T05:55:12;23.20;63.40
51988;DHT22;38003;52.012;4.346;2022-08-19T05:57:40;23.20;63.20
51988;DHT22;38003;52.012;4.346;2022-08-19T06:00:09;23.20;63.30
51988;DHT22;38003;52.012;4.346;2022-08-19T06:02:39;23.20;63.30
51988;DHT22;38003;52.012;4.346;2022-08-19T06:05:10;23.50;63.40
51988;DHT22;38003;52.012;4.346;2022-08-19T06:07:39;23.40;63.40
51988;DHT22;38003;52.012;4.346;2022-08-19T06:10:10;23.30;63.20
51988;DHT22;38003;52.012;4.346;2022-08-19T06:12:38;23.20;63.40
51988;DHT22;38003;52.012;4.346;2022-08-19T06:15:08;23.20;63.20
51988;DHT22;38003;52.012;4.346;2022-08-19T06:17:36;23.30;63.40
51988;DHT22;38003;52.012;4.346;2022-08-19T06:20:06;23.40;63.30
51988;DHT22;38003;52.012;4.346;2022-08-19T06:22:39;23.40;63.70
51988;DHT22;38003;52.012;4.346;2022-08-19T06:25:08;23.40;63.70
51988;DHT22;38003;52.012;4.346;2022-08-19T06:27:37;23.40;63.40
51988;DHT22;38003;52.012;4.346;2022-08-19T06:30:26;23.50;63.50
51988;DHT22;38003;52.012;4.346;2022-08-19T06:32:54;23.50;63.80
51988;DHT22;38003;52.012;4.346;2022-08-19T06:35:22;23.40;63.70
51988;DHT22;38003;52.012;4.346;2022-08-19T06:37:51;23.60;63.60
51988;DHT22;38003;52.012;4.346;2022-08-19T06:40:21;23.60;63.60
51988;DHT22;38003;52.012;4.346;2022-08-19T06:42:50;23.60;63.50
51988;DHT22;38003;52.012;4.346;2022-08-19T06:45:21;23.60;63.40
51988;DHT22;38003;52.012;4.346;2022-08-19T06:47:51;23.60;63.30
51988;DHT22;38003;52.012;4.346;2022-08-19T06:50:23;23.70;63.70
51988;DHT22;38003;52.012;4.346;2022-08-19T06:52:52;23.60;63.50
51988;DHT22;38003;52.012;4.346;2022-08-19T06:55:21;23.60;63.50
51988;DHT22;38003;52.012;4.346;2022-08-19T06:57:49;23.60;63.40
51988;DHT22;38003;52.012;4.346;2022-08-19T07:00:20;23.70;63.60
51988;DHT22;38003;52.012;4.346;2022-08-19T07:02:48;23.70;63.40
51988;DHT22;38003;52.012;4.346;2022-08-19T07:05:25;23.70;63.50
51988;DHT22;38003;52.012;4.346;2022-08-19T07:07:54;23.70;63.30
51988;DHT22;38003;52.012;4.346;2022-08-19T07:10:30;23.70;63.30
51988;DHT22;38003;52.012;4.346;2022-08-19T07:12:59;23.70;63.20
51988;DHT22;38003;52.012;4.346;2022-08-19T07:15:27;23.70;63.30
51988;DHT22;38003;52.012;4.346;2022-08-19T07:17:55;23.70;63.30
51988;DHT22;38003;52.012;4.346;2022-08-19T07:20:23;24.00;63.50
51988;DHT22;38003;52.012;4.346;2022-08-19T07:22:56;23.80;63.50
51988;DHT22;38003;52.012;4.346;2022-08-19T07:25:25;24.20;63.70
51988;DHT22;38003;52.012;4.346;2022-08-19T07:27:58;23.90;63.50
51988;DHT22;38003;52.012;4.346;2022-08-19T07:30:27;24.00;63.50
51988;DHT22;38003;52.012;4.346;2022-08-19T07:32:57;23.90;63.40
51988;DHT22;38003;52.012;4.346;2022-08-19T07:35:29;24.10;63.50
51988;DHT22;38003;52.012;4.346;2022-08-19T07:38:00;24.00;63.50
51988;DHT22;38003;52.012;4.346;2022-08-19T07:40:30;24.00;63.50
51988;DHT22;38003;52.012;4.346;2022-08-19T07:42:58;24.10;63.50
51988;DHT22;38003;52.012;4.346;2022-08-19T07:45:26;24.10;63.50
51988;DHT22;38003;52.012;4.346;2022-08-19T07:47:55;24.20;63.40
51988;DHT22;38003;52.012;4.346;2022-08-19T07:50:23;24.20;63.40
51988;DHT22;38003;52.012;4.346;2022-08-19T07:52:51;24.30;63.40
51988;DHT22;38003;52.012;4.346;2022-08-19T07:55:23;24.40;63.40
51988;DHT22;38003;52.012;4.346;2022-08-19T07:58:10;24.80;63.70
51988;DHT22;38003;52.012;4.346;2022-08-19T08:00:39;24.30;63.40
51988;DHT22;38003;52.012;4.346;2022-08-19T08:03:07;24.20;63.40
51988;DHT22;38003;52.012;4.346;2022-08-19T08:05:36;24.30;63.20
51988;DHT22;38003;52.012;4.346;2022-08-19T08:08:21;24.20;63.50
51988;DHT22;38003;52.012;4.346;2022-08-19T08:11:15;24.30;63.50
51988;DHT22;38003;52.012;4.346;2022-08-19T08:13:46;24.40;62.70
51988;DHT22;38003;52.012;4.346;2022-08-19T08:16:27;24.30;62.40
51988;DHT22;38003;52.012;4.346;2022-08-19T08:18:58;24.50;62.50
51988;DHT22;38003;52.012;4.346;2022-08-19T08:21:27;24.60;62.30
51988;DHT22;38003;52.012;4.346;2022-08-19T08:23:55;24.60;62.10
51988;DHT22;38003;52.012;4.346;2022-08-19T08:26:25;24.60;62.10
51988;DHT22;38003;52.012;4.346;2022-08-19T08:28:54;24.60;61.90
51988;DHT22;38003;52.012;4.346;2022-08-19T08:31:22;24.60;62.00
51988;DHT22;38003;52.012;4.346;2022-08-19T08:33:51;24.70;62.10
51988;DHT22;38003;52.012;4.346;2022-08-19T08:36:19;24.60;62.10
51988;DHT22;38003;52.012;4.346;2022-08-19T08:38:47;24.60;62.20
51988;DHT22;38003;52.012;4.346;2022-08-19T08:41:28;24.60;62.20
51988;DHT22;38003;52.012;4.346;2022-08-19T08:44:00;24.50;62.20
51988;DHT22;38003;52.012;4.346;2022-08-19T08:46:35;24.80;62.20
51988;DHT22;38003;52.012;4.346;2022-08-19T08:49:09;24.70;62.20
51988;DHT22;38003;52.012;4.346;2022-08-19T08:51:46;24.70;62.20
51988;DHT22;38003;52.012;4.346;2022-08-19T08:54:32;24.70;62.10
51988;DHT22;38003;52.012;4.346;2022-08-19T08:57:04;24.80;62.20
51988;DHT22;38003;52.012;4.346;2022-08-19T08:59:38;24.90;61.90
51988;DHT22;38003;52.012;4.346;2022-08-19T09:02:07;25.00;61.90
51988;DHT22;38003;52.012;4.346;2022-08-19T09:04:36;25.00;61.70
51988;DHT22;38003;52.012;4.346;2022-08-19T09:07:19;25.10;61.70
51988;DHT22;38003;52.012;4.346;2022-08-19T09:10:07;25.10;61.80
51988;DHT22;38003;52.012;4.346;2022-08-19T09:12:46;25.10;61.90
51988;DHT22;38003;52.012;4.346;2022-08-19T09:15:25;25.10;62.00
51988;DHT22;38003;52.012;4.346;2022-08-19T09:18:03;24.80;62.20
51988;DHT22;38003;52.012;4.346;2022-08-19T09:20:33;24.90;62.00
51988;DHT22;38003;52.012;4.346;2022-08-19T09:23:01;24.90;62.10
51988;DHT22;38003;52.012;4.346;2022-08-19T09:25:30;24.90;62.00
51988;DHT22;38003;52.012;4.346;2022-08-19T09:28:01;24.90;61.90
51988;DHT22;38003;52.012;4.346;2022-08-19T09:30:47;24.90;62.00
51988;DHT22;38003;52.012;4.346;2022-08-19T09:33:16;24.90;62.00
51988;DHT22;38003;52.012;4.346;2022-08-19T09:35:44;25.00;61.90
51988;DHT22;38003;52.012;4.346;2022-08-19T09:38:19;24.90;62.00
51988;DHT22;38003;52.012;4.346;2022-08-19T09:40:47;24.90;61.90
51988;DHT22;38003;52.012;4.346;2022-08-19T09:43:16;25.00;61.80
51988;DHT22;38003;52.012;4.346;2022-08-19T09:46:07;25.00;61.70
51988;DHT22;38003;52.012;4.346;2022-08-19T09:48:36;25.00;61.80
51988;DHT22;38003;52.012;4.346;2022-08-19T09:51:05;24.90;61.90
51988;DHT22;38003;52.012;4.346;2022-08-19T09:53:41;25.00;61.80
51988;DHT22;38003;52.012;4.346;2022-08-19T09:56:13;25.00;61.80
51988;DHT22;38003;52.012;4.346;2022-08-19T09:58:45;25.00;61.70
51988;DHT22;38003;52.012;4.346;2022-08-19T10:01:19;25.20;61.80
51988;DHT22;38003;52.012;4.346;2022-08-19T10:03:49;25.40;61.80
51988;DHT22;38003;52.012;4.346;2022-08-19T10:06:27;25.40;61.50
51988;DHT22;38003;52.012;4.346;2022-08-19T10:09:14;25.50;61.30
51988;DHT22;38003;52.012;4.346;2022-08-19T10:12:01;25.30;61.10
51988;DHT22;38003;52.012;4.346;2022-08-19T10:14:29;25.20;61.10
51988;DHT22;38003;52.012;4.346;2022-08-19T10:16:58;25.20;61.00
51988;DHT22;38003;52.012;4.346;2022-08-19T10:19:30;25.30;61.20
51988;DHT22;38003;52.012;4.346;2022-08-19T10:22:04;25.30;61.00
51988;DHT22;38003;52.012;4.346;2022-08-19T10:24:38;25.40;61.00
51988;DHT22;38003;52.012;4.346;2022-08-19T10:27:07;25.40;61.30
51988;DHT22;38003;52.012;4.346;2022-08-19T10:29:36;25.20;61.30
51988;DHT22;38003;52.012;4.346;2022-08-19T10:32:13;25.10;61.30
51988;DHT22;38003;52.012;4.346;2022-08-19T10:34:42;25.10;61.30
51988;DHT22;38003;52.012;4.346;2022-08-19T10:37:15;25.10;61.20
51988;DHT22;38003;52.012;4.346;2022-08-19T10:39:52;25.10;61.50
51988;DHT22;38003;52.012;4.346;2022-08-19T10:42:24;25.00;61.70
51988;DHT22;38003;52.012;4.346;2022-08-19T10:44:52;25.10;61.50
51988;DHT22;38003;52.012;4.346;2022-08-19T10:47:22;25.10;61.60
51988;DHT22;38003;52.012;4.346;2022-08-19T10:49:57;25.10;61.50
51988;DHT22;38003;52.012;4.346;2022-08-19T10:52:44;25.10;61.50
51988;DHT22;38003;52.012;4.346;2022-08-19T10:55:22;25.20;61.50
51988;DHT22;38003;52.012;4.346;2022-08-19T10:58:12;25.30;61.80
51988;DHT22;38003;52.012;4.346;2022-08-19T11:00:40;25.10;61.50
51988;DHT22;38003;52.012;4.346;2022-08-19T11:03:11;25.10;61.50
51988;DHT22;38003;52.012;4.346;2022-08-19T11:05:39;25.10;61.60
51988;DHT22;38003;52.012;4.346;2022-08-19T11:08:08;25.10;61.70
51988;DHT22;38003;52.012;4.346;2022-08-19T11:10:50;25.00;61.70
51988;DHT22;38003;52.012;4.346;2022-08-19T11:13:20;25.00;61.70
51988;DHT22;38003;52.012;4.346;2022-08-19T11:15:56;25.10;61.60
51988;DHT22;38003;52.012;4.346;2022-08-19T11:18:25;25.10;61.60
51988;DHT22;38003;52.012;4.346;2022-08-19T11:20:54;25.10;61.90
51988;DHT22;38003;52.012;4.346;2022-08-19T11:23:24;25.10;61.80
51988;DHT22;38003;52.012;4.346;2022-08-19T11:25:52;24.90;61.90
51988;DHT22;38003;52.012;4.346;2022-08-19T11:28:20;24.90;62.80
51988;DHT22;38003;52.012;4.346;2022-08-19T11:30:47;24.80;62.30
51988;DHT22;38003;52.012;4.346;2022-08-19T11:33:15;24.80;62.40
51988;DHT22;38003;52.012;4.346;2022-08-19T11:35:45;24.80;62.80
51988;DHT22;38003;52.012;4.346;2022-08-19T11:38:13;24.80;62.90
51988;DHT22;38003;52.012;4.346;2022-08-19T11:40:41;24.90;62.70
51988;DHT22;38003;52.012;4.346;2022-08-19T11:43:09;25.00;62.70
51988;DHT22;38003;52.012;4.346;2022-08-19T11:45:37;25.10;62.90
51988;DHT22;38003;52.012;4.346;2022-08-19T11:48:05;25.10;63.10
51988;DHT22;38003;52.012;4.346;2022-08-19T11:50:33;25.10;62.90
51988;DHT22;38003;52.012;4.346;2022-08-19T11:53:02;25.10;63.00
51988;DHT22;38003;52.012;4.346;2022-08-19T11:55:32;25.10;63.00
51988;DHT22;38003;52.012;4.346;2022-08-19T11:58:09;25.00;63.30
51988;DHT22;38003;52.012;4.346;2022-08-19T12:00:45;25.00;63.00
51988;DHT22;38003;52.012;4.346;2022-08-19T12:03:13;25.10;63.20
51988;DHT22;38003;52.012;4.346;2022-08-19T12:05:41;25.10;63.10
51988;DHT22;38003;52.012;4.346;2022-08-19T12:08:11;25.20;63.00
51988;DHT22;38003;52.012;4.346;2022-08-19T12:10:39;25.20;63.30
51988;DHT22;38003;52.012;4.346;2022-08-19T12:13:08;25.20;63.30
51988;DHT22;38003;52.012;4.346;2022-08-19T12:15:37;25.10;63.20
51988;DHT22;38003;52.012;4.346;2022-08-19T12:18:07;25.10;63.20
51988;DHT22;38003;52.012;4.346;2022-08-19T12:20:36;25.20;63.10
51988;DHT22;38003;52.012;4.346;2022-08-19T12:23:06;25.20;63.20
51988;DHT22;38003;52.012;4.346;2022-08-19T12:25:42;25.20;63.00
51988;DHT22;38003;52.012;4.346;2022-08-19T12:28:19;25.30;63.10
51988;DHT22;38003;52.012;4.346;2022-08-19T12:30:48;25.30;63.10
51988;DHT22;38003;52.012;4.346;2022-08-19T12:33:16;25.20;63.10
51988;DHT22;38003;52.012;4.346;2022-08-19T12:35:45;25.40;63.20
51988;DHT22;38003;52.012;4.346;2022-08-19T12:38:13;25.40;63.30
51988;DHT22;38003;52.012;4.346;2022-08-19T12:40:45;25.50;63.20
51988;DHT22;38003;52.012;4.346;2022-08-19T12:43:13;25.60;63.00
51988;DHT22;38003;52.012;4.346;2022-08-19T12:45:42;25.60;62.90
51988;DHT22;38003;52.012;4.346;2022-08-19T12:48:13;25.80;62.90
51988;DHT22;38003;52.012;4.346;2022-08-19T12:51:00;25.90;62.80
51988;DHT22;38003;52.012;4.346;2022-08-19T12:53:33;26.00;62.60
51988;DHT22;38003;52.012;4.346;2022-08-19T12:56:07;26.00;63.40
51988;DHT22;38003;52.012;4.346;2022-08-19T12:58:38;26.10;62.50
51988;DHT22;38003;52.012;4.346;2022-08-19T13:01:16;25.90;62.40
51988;DHT22;38003;52.012;4.346;2022-08-19T13:03:49;25.80;62.20
51988;DHT22;38003;52.012;4.346;2022-08-19T13:06:18;25.70;62.20
51988;DHT22;38003;52.012;4.346;2022-08-19T13:08:47;25.60;62.00
51988;DHT22;38003;52.012;4.346;2022-08-19T13:11:18;25.70;62.00
51988;DHT22;38003;52.012;4.346;2022-08-19T13:13:49;26.00;62.10
51988;DHT22;38003;52.012;4.346;2022-08-19T13:16:18;26.00;61.80
51988;DHT22;38003;52.012;4.346;2022-08-19T13:18:48;25.90;61.80
51988;DHT22;38003;52.012;4.346;2022-08-19T13:21:19;25.90;61.60
51988;DHT22;38003;52.012;4.346;2022-08-19T13:23:49;25.80;61.60
51988;DHT22;38003;52.012;4.346;2022-08-19T13:26:19;25.90;61.90
51988;DHT22;38003;52.012;4.346;2022-08-19T13:28:47;26.00;61.70
51988;DHT22;38003;52.012;4.346;2022-08-19T13:31:35;26.00;61.60
51988;DHT22;38003;52.012;4.346;2022-08-19T13:34:28;26.10;61.70
51988;DHT22;38003;52.012;4.346;2022-08-19T13:36:57;26.10;61.70
51988;DHT22;38003;52.012;4.346;2022-08-19T13:39:25;26.10;61.90
51988;DHT22;38003;52.012;4.346;2022-08-19T13:41:55;26.30;61.20
51988;DHT22;38003;52.012;4.346;2022-08-19T13:44:25;26.30;61.20
51988;DHT22;38003;52.012;4.346;2022-08-19T13:46:53;26.10;61.10
51988;DHT22;38003;52.012;4.346;2022-08-19T13:49:21;26.20;61.10
51988;DHT22;38003;52.012;4.346;2022-08-19T13:51:49;26.10;61.10
51988;DHT22;38003;52.012;4.346;2022-08-19T13:54:17;26.10;61.10
51988;DHT22;38003;52.012;4.346;2022-08-19T13:56:45;26.10;61.10
51988;DHT22;38003;52.012;4.346;2022-08-19T13:59:15;26.20;61.20
51988;DHT22;38003;52.012;4.346;2022-08-19T14:01:44;26.30;61.30
51988;DHT22;38003;52.012;4.346;2022-08-19T14:04:12;26.50;61.10
51988;DHT22;38003;52.012;4.346;2022-08-19T14:06:39;26.70;61.00
51988;DHT22;38003;52.012;4.346;2022-08-19T14:09:07;26.70;60.80
51988;DHT22;38003;52.012;4.346;2022-08-19T14:11:35;26.60;60.80
51988;DHT22;38003;52.012;4.346;2022-08-19T14:14:03;26.80;61.10
51988;DHT22;38003;52.012;4.346;2022-08-19T14:16:33;26.50;60.90
51988;DHT22;38003;52.012;4.346;2022-08-19T14:19:01;26.50;60.90
51988;DHT22;38003;52.012;4.346;2022-08-19T14:21:29;26.40;60.90
51988;DHT22;38003;52.012;4.346;2022-08-19T14:23:57;26.40;60.90
51988;DHT22;38003;52.012;4.346;2022-08-19T14:26:25;26.20;60.90
51988;DHT22;38003;52.012;4.346;2022-08-19T14:28:53;26.10;61.00
51988;DHT22;38003;52.012;4.346;2022-08-19T14:31:24;26.20;61.00
51988;DHT22;38003;52.012;4.346;2022-08-19T14:33:57;26.10;61.10
51988;DHT22;38003;52.012;4.346;2022-08-19T14:36:25;26.10;61.10
51988;DHT22;38003;52.012;4.346;2022-08-19T14:38:53;26.10;61.00
51988;DHT22;38003;52.012;4.346;2022-08-19T14:41:23;26.00;61.80
51988;DHT22;38003;52.012;4.346;2022-08-19T14:43:52;26.00;61.20
51988;DHT22;38003;52.012;4.346;2022-08-19T14:46:21;26.10;61.50
51988;DHT22;38003;52.012;4.346;2022-08-19T14:48:51;26.00;61.40
51988;DHT22;38003;52.012;4.346;2022-08-19T14:51:23;25.90;61.60
51988;DHT22;38003;52.012;4.346;2022-08-19T14:53:53;25.80;61.60
51988;DHT22;38003;52.012;4.346;2022-08-19T14:56:24;25.80;61.70
51988;DHT22;38003;52.012;4.346;2022-08-19T14:58:52;25.80;61.50
51988;DHT22;38003;52.012;4.346;2022-08-19T15:01:22;25.70;61.80
51988;DHT22;38003;52.012;4.346;2022-08-19T15:03:50;25.50;62.10
51988;DHT22;38003;52.012;4.346;2022-08-19T15:06:22;25.40;62.50
51988;DHT22;38003;52.012;4.346;2022-08-19T15:08:50;25.40;62.70
51988;DHT22;38003;52.012;4.346;2022-08-19T15:11:20;25.30;62.90
51988;DHT22;38003;52.012;4.346;2022-08-19T15:13:49;25.20;63.10
51988;DHT22;38003;52.012;4.346;2022-08-19T15:16:18;25.10;63.20
51988;DHT22;38003;52.012;4.346;2022-08-19T15:18:49;25.10;63.00
51988;DHT22;38003;52.012;4.346;2022-08-19T15:21:17;25.20;62.80
51988;DHT22;38003;52.012;4.346;2022-08-19T15:23:55;25.00;62.80
51988;DHT22;38003;52.012;4.346;2022-08-19T15:26:24;25.00;63.40
51988;DHT22;38003;52.012;4.346;2022-08-19T15:28:53;24.90;63.60
51988;DHT22;38003;52.012;4.346;2022-08-19T15:31:21;24.90;63.30
51988;DHT22;38003;52.012;4.346;2022-08-19T15:33:54;25.00;63.40
51988;DHT22;38003;52.012;4.346;2022-08-19T15:36:23;24.90;63.60
51988;DHT22;38003;52.012;4.346;2022-08-19T15:38:54;25.00;63.60
51988;DHT22;38003;52.012;4.346;2022-08-19T15:41:24;24.80;63.70
51988;DHT22;38003;52.012;4.346;2022-08-19T15:43:54;24.80;63.80
51988;DHT22;38003;52.012;4.346;2022-08-19T15:46:26;24.90;63.70
51988;DHT22;38003;52.012;4.346;2022-08-19T15:48:55;24.90;64.00
51988;DHT22;38003;52.012;4.346;2022-08-19T15:51:28;24.90;63.70
51988;DHT22;38003;52.012;4.346;2022-08-19T15:53:58;24.90;63.60
51988;DHT22;38003;52.012;4.346;2022-08-19T15:56:26;24.90;63.80